• Join FlightAware (Why Join?)
  • Login
  • US Flag 
02:05PM EST


 

Airport Tracker/Info


-or-


 

Live Flight TrackerFlight Track Log ✈ AAY841 ✈ 15-May-2014 ✈ KTRI - KPIE

Flight Track Log - Related Links

Times and Time Zones

All times are in EDT time to prevent confusion due to time zone crossing. See the AAY841 flight status page for this flight to view local times or setup timezone preferences in your user account.

Time Position Orientation Groundspeed Altitude Reporting Facility
EDT Latitude Longitude Course Direction KTS MPH feet Rate Location/Type
11:21AM 36.4422 -82.4464 223° Southwest 179 206 3,500  Level Atlanta Center
11:22AM 36.3989 -82.4964 223° Southwest 206 237 4,900 2,250 Climbing Atlanta Center
11:23AM 36.3392 -82.5464 214° Southwest 240 276 8,000 2,850 Climbing Atlanta Center
11:24AM 36.2833 -82.5989 217° Southwest 261 300 10,600 1,700 Climbing Atlanta Center
11:25AM 36.2256 -82.6514 216° Southwest 273 314 11,400 1,250 Climbing Atlanta Center
11:26AM 36.1492 -82.7247 218° Southwest 321 369 13,100 1,900 Climbing Atlanta Center
11:27AM 36.0667 -82.8006 217° Southwest 365 420 15,200 2,150 Climbing Atlanta Center
11:28AM 35.9797 -82.8764 215° Southwest 381 438 17,400 2,000 Climbing Atlanta Center
11:29AM 35.8928 -82.9597 218° Southwest 396 456 19,200 1,900 Climbing Atlanta Center
11:30AM 35.8017 -83.0403 216° Southwest 404 465 21,200 1,800 Climbing Atlanta Center
11:31AM 35.6894 -83.0747 194° South 414 476 22,800 1,800 Climbing Atlanta Center
11:32AM 35.5769 -83.1017 191° South 414 476 24,800 1,600 Climbing Atlanta Center
11:33AM 35.4667 -83.1308 192° South 414 476 26,000 600 Climbing Atlanta Center
11:34AM 35.3583 -83.1603 192° South 409 471 26,000  Level Atlanta Center
11:35AM 35.2542 -83.1892 193° South 402 463 26,000  Level Atlanta Center
11:36AM 35.1458 -83.2208 193° South 402 463 26,000 300 Level Atlanta Center
11:37AM 35.0375 -83.2497 192° South 397 457 26,600 1,500 Climbing Atlanta Center
11:38AM 34.9333 -83.2761 192° South 391 450 29,000 2,050 Climbing Atlanta Center
11:39AM 34.8272 -83.3025 192° South 375 432 30,700 1,350 Climbing Atlanta Center
11:40AM 34.7292 -83.3311 193° South 368 423 31,700 650 Climbing Atlanta Center
11:41AM 34.6333 -83.3597 194° South 363 418 32,000 150 Climbing Atlanta Center
11:42AM 34.5356 -83.3781 189° South 357 411 32,000  Level Atlanta Center
11:43AM 34.4375 -83.4067 194° South 357 411 32,000  Level Atlanta Center
11:44AM 34.3375 -83.4325 192° South 357 411 32,000  Level Atlanta Center
11:45AM 34.2394 -83.4583 192° South 357 411 32,000  Level Atlanta Center
11:46AM 34.1417 -83.4867 193° South 357 411 32,000  Level Atlanta Center
11:47AM 34.0456 -83.5097 191° South 357 411 32,000  Level Atlanta Center
11:48AM 33.9456 -83.5356 192° South 357 411 32,000  Level Atlanta Center
11:49AM 33.8497 -83.5611 192° South 362 417 32,000  Level Atlanta Center
11:50AM 33.7494 -83.5867 192° South 362 417 32,000  Level Atlanta Center
11:51AM 33.6517 -83.6119 192° South 362 417 32,000  Level Atlanta Center
11:52AM 33.5578 -83.6325 190° South 372 428 32,000  Level Atlanta Center
11:53AM 33.4597 -83.6603 193° South 372 428 32,000  Level Atlanta Center
11:54AM 33.3594 -83.6831 191° South 372 428 32,000  Level Atlanta Center
11:55AM 33.2575 -83.7108 193° South 372 428 32,000  Level Atlanta Center
11:56AM 33.1594 -83.7361 192° South 372 428 32,000  Level Atlanta Center
11:57AM 33.0508 -83.7636 192° South 372 428 32,000  Level Atlanta Center
11:58AM 32.9508 -83.7914 193° South 372 428 32,000  Level Atlanta Center
11:59AM 32.8486 -83.8164 192° South 372 428 32,000 300 Level Atlanta Center
12:00PM 32.7461 -83.8411 191° South 372 428 32,600 500 Climbing Atlanta Center
12:01PM 32.6439 -83.8661 192° South 372 428 33,000 200 Climbing Atlanta Center
12:02PM 32.5397 -83.8958 194° South 372 428 33,000  Level Atlanta Center
12:03PM 32.4375 -83.9208 192° South 377 434 33,000  Level Atlanta Center
12:04PM 32.3331 -83.9431 190° South 377 434 33,000  Level Atlanta Center
12:05PM 32.1681 -83.9847 192° South 377 434 33,000  Level Jacksonville Center
12:06PM 32.0636 -84.0081 191° South 377 434 33,000  Level Jacksonville Center
12:07PM 31.9589 -84.0214 186° South 377 434 33,000  Level Jacksonville Center
12:08PM 31.8400 -84.0128 176° South 382 440 33,000  Level Jacksonville Center
12:09PM 31.7317 -84.0064 177° South 382 440 33,000  Level Jacksonville Center
12:10PM 31.6250 -84.0003 177° South 382 440 33,000  Level Jacksonville Center
12:11PM 31.5167 -83.9942 177° South 387 445 33,000  Level Jacksonville Center
12:12PM 31.4103 -83.9881 177° South 387 445 33,000  Level Jacksonville Center
12:13PM 31.3017 -83.9794 176° South 387 445 33,000  Level Jacksonville Center
12:14PM 31.1953 -83.9733 177° South 387 445 33,000  Level Jacksonville Center
12:15PM 31.0867 -83.9672 177° South 387 445 33,000  Level Jacksonville Center
12:16PM 30.9781 -83.9611 177° South 387 445 33,000  Level Jacksonville Center
12:17PM 30.8717 -83.9528 176° South 387 445 33,000  Level Jacksonville Center
12:18PM 30.7611 -83.9467 177° South 387 445 33,000 -550 Level Jacksonville Center
12:19PM 30.6525 -83.9431 178° South 387 445 31,900 -1,000 Descending Jacksonville Center
12:20PM 30.5650 -83.9372 177° South 387 445 31,000 -450 Descending Jacksonville Center
12:21PM 30.4481 -83.9311 177° South 387 445 31,000  Level Jacksonville Center
12:22PM 30.3353 -83.9250 177° South 387 445 31,000  Level Jacksonville Center
12:23PM 30.2269 -83.9167 176° South 387 445 31,000  Level Jacksonville Center
12:24PM 30.1183 -83.9131 178° South 387 445 31,000  Level Jacksonville Center
12:25PM 30.0078 -83.9072 177° South 387 445 31,000  Level Jacksonville Center
12:26PM 29.8972 -83.9011 177° South 393 452 31,000  Level Jacksonville Center
12:27PM 29.7889 -83.8761 169° South 398 458 31,000  Level Jacksonville Center
12:28PM 29.6892 -83.8083 149° Southeast 398 458 31,000  Level Jacksonville Center
12:29PM 29.5853 -83.7428 151° Southeast 412 474 31,000  Level Jacksonville Center
12:30PM 29.4833 -83.6775 151° Southeast 417 480 31,000 -252 Level Jacksonville Center
12:31PM 29.3836 -83.6122 150° Southeast 417 480 30,500 -1,250 Descending Jacksonville Center
12:32PM 29.2856 -83.5519 152° Southeast 407 468 28,500 -2,000 Descending Jacksonville Center
12:33PM 29.1961 -83.4944 151° Southeast 395 455 26,500 -1,750 Descending Jacksonville Center
12:34PM 29.1047 -83.4369 151° Southeast 383 441 25,000 -1,600 Descending Jacksonville Center
12:35PM 29.0089 -83.3744 150° Southeast 383 441 23,300 -1,700 Descending Jacksonville Center
12:36PM 28.9131 -83.3147 151° Southeast 388 447 21,600 -1,600 Descending Jacksonville Center
12:37PM 28.8236 -83.2553 150° Southeast 383 441 20,100 -1,548 Descending Jacksonville Center
12:39PM 28.6917 -83.1692 150° Southeast 356 410 17,600 -1,581 Descending Miami Center
12:40PM 28.5833 -83.1000 151° Southeast 340 391 15,700 -1,476 Descending Tampa TRACON
12:41PM 28.5000 -83.0500 152° Southeast 345 397 14,500 -1,450 Descending Tampa TRACON
12:42PM 28.4500 -82.9667 124° Southeast 346 398 12,800 -1,636 Descending Tampa TRACON
12:43PM 28.4167 -82.8500 108° East 333 383 10,900 -1,762 Descending Tampa TRACON
12:44PM 28.4000 -82.7500 101° East 302 348 9,100 -1,941 Descending Tampa TRACON
12:45PM 28.3667 -82.7167 139° Southeast 282 325 7,600 -2,150 Descending Tampa TRACON
12:46PM 28.2833 -82.7000 170° South 248 285 4,800 -1,905 Descending Tampa TRACON
12:47PM 28.2333 -82.7167 196° South 244 281 3,600 -1,167 Descending Tampa TRACON
12:48PM 28.1667 -82.7333 192° South 250 288 2,700 -496 Descending Tampa TRACON
12:49PM 28.1000 -82.7167 168° South 221 254 2,600 -142 Descending Tampa TRACON
12:50PM 28.0500 -82.7167 180° South 150 173 2,400 -450 Descending Tampa TRACON
12:51PM 28.0167 -82.7000 156° South 150 173 1,700 -789 Descending Tampa TRACON
12:52PM 27.9667 -82.7000 180° South 140 161 900 -800 Descending Tampa TRACON